Time;durP1;ratioP1;P1;durP2;ratioP2;P2;SDS_P1;SDS_P2;PMS_P1;PMS_P2;Temp;Humidity;BMP_temperature;BMP_pressure;BME280_temperature;BME280_humidity;BME280_pressure;Samples;Min_cycle;Max_cycle;Signal;HPM_P1;HPM_P2
2021/07/23 00:00:50;;;;;;;;;18.00;13.25;;;;;-143.39;100.00;63593.47;4894660;29;46084;-82
2021/07/23 00:03:15;;;;;;;;;16.50;14.00;;;;;-143.39;100.00;63593.47;4895300;29;45484;-82
2021/07/23 00:05:41;;;;;;;;;15.50;12.25;;;;;-143.39;100.00;63593.47;4878161;29;45495;-82
2021/07/23 00:08:06;;;;;;;;;13.75;13.00;;;;;-143.39;100.00;63593.47;4881889;29;45616;-82
2021/07/23 00:10:31;;;;;;;;;14.00;12.25;;;;;-143.39;100.00;63593.47;4898184;29;45566;-82
2021/07/23 00:12:57;;;;;;;;;16.25;13.25;;;;;-143.39;100.00;63593.47;4898879;29;45484;-82
2021/07/23 00:15:22;;;;;;;;;14.50;13.25;;;;;-143.39;100.00;63593.47;4895377;29;45698;-81
2021/07/23 00:17:47;;;;;;;;;15.50;12.50;;;;;-143.39;100.00;63593.47;4899386;29;45438;-82
2021/07/23 00:20:13;;;;;;;;;15.50;14.25;;;;;-143.39;100.00;63593.47;4894813;29;45426;-82
2021/07/23 00:22:38;;;;;;;;;13.75;12.00;;;;;-143.39;100.00;63593.47;4896179;29;45479;-82
2021/07/23 00:25:04;;;;;;;;;16.25;14.00;;;;;-143.39;100.00;63593.47;4897614;29;45451;-82
2021/07/23 00:27:30;;;;;;;;;16.00;14.75;;;;;-143.39;100.00;63593.47;4892948;29;45419;-82
2021/07/23 00:29:55;;;;;;;;;18.25;14.75;;;;;-143.39;100.00;63593.47;4875157;29;47057;-82
2021/07/23 00:32:20;;;;;;;;;14.50;12.50;;;;;-143.39;100.00;63593.47;4865931;29;45443;-83
2021/07/23 00:34:46;;;;;;;;;15.00;13.00;;;;;-143.39;100.00;63593.47;4869755;29;45469;-83
2021/07/23 00:37:11;;;;;;;;;15.75;15.00;;;;;-143.39;100.00;63593.47;4897415;29;45414;-83
2021/07/23 00:39:36;;;;;;;;;18.75;14.00;;;;;-143.39;100.00;63593.47;4902589;29;45682;-83
2021/07/23 00:42:02;;;;;;;;;14.00;11.25;;;;;-143.39;100.00;63593.47;4880996;29;45861;-83
2021/07/23 00:44:27;;;;;;;;;12.25;11.00;;;;;-143.39;100.00;63593.47;4883961;29;45523;-83
2021/07/23 00:46:55;;;;;;;;;15.25;12.25;;;;;-143.39;100.00;63593.47;4902848;29;45516;-83
2021/07/23 00:49:21;;;;;;;;;12.75;12.25;;;;;-143.39;100.00;63593.47;4896142;29;45427;-83
2021/07/23 00:51:46;;;;;;;;;12.00;10.00;;;;;-143.39;100.00;63593.47;4887832;29;45455;-83
2021/07/23 00:54:12;;;;;;;;;14.00;13.50;;;;;-143.39;100.00;63593.47;4884669;29;45358;-83
2021/07/23 00:56:38;;;;;;;;;14.75;13.00;;;;;-143.39;100.00;63593.47;4885883;29;45565;-83
2021/07/23 00:59:03;;;;;;;;;18.00;13.75;;;;;-143.39;100.00;63593.47;4874752;29;47113;-83
2021/07/23 01:01:29;;;;;;;;;16.00;12.50;;;;;-143.39;100.00;63593.47;4904407;29;45230;-83
2021/07/23 01:03:55;;;;;;;;;13.75;11.25;;;;;-143.39;100.00;63593.47;4891527;29;45455;-83
2021/07/23 01:06:22;;;;;;;;;16.00;11.75;;;;;-143.39;100.00;63593.47;4871245;29;45621;-83
2021/07/23 01:08:47;;;;;;;;;12.25;12.00;;;;;-143.39;100.00;63593.47;4887693;29;45575;-83
2021/07/23 01:11:13;;;;;;;;;13.50;12.00;;;;;-143.39;100.00;63593.47;4887727;29;45411;-83
2021/07/23 01:13:40;;;;;;;;;17.25;12.00;;;;;-143.39;100.00;63593.47;4891244;29;45467;-83
2021/07/23 01:16:06;;;;;;;;;12.50;11.75;;;;;-143.39;100.00;63593.47;4887774;29;45328;-83
2021/07/23 01:18:31;;;;;;;;;12.00;11.25;;;;;-143.39;100.00;63593.47;4888053;29;45542;-83
2021/07/23 01:20:57;;;;;;;;;14.50;12.25;;;;;-143.39;100.00;63593.47;4887814;29;45399;-83
2021/07/23 01:23:34;;;;;;;;;14.25;11.25;;;;;-143.39;100.00;63593.47;4889420;29;45450;-83
2021/07/23 01:26:01;;;;;;;;;12.75;11.00;;;;;-143.39;100.00;63593.47;4899598;29;45311;-83
2021/07/23 01:28:29;;;;;;;;;16.00;11.50;;;;;-143.39;100.00;63593.47;4906617;29;45598;-84
2021/07/23 01:30:54;;;;;;;;;13.75;12.00;;;;;-143.39;100.00;63593.47;4885555;29;45862;-84
2021/07/23 01:33:20;;;;;;;;;18.25;14.50;;;;;-143.39;100.00;63593.47;4904919;29;45440;-83
2021/07/23 01:35:46;;;;;;;;;14.50;12.25;;;;;-143.39;100.00;63593.47;4906169;29;45359;-84
2021/07/23 01:38:13;;;;;;;;;12.75;12.00;;;;;-143.39;100.00;63593.47;4889116;29;48600;-83
2021/07/23 01:40:39;;;;;;;;;12.25;11.25;;;;;-143.39;100.00;63593.47;4889035;29;45205;-83
2021/07/23 01:43:05;;;;;;;;;13.00;12.00;;;;;-143.39;100.00;63593.47;4879854;29;45500;-83
2021/07/23 01:45:30;;;;;;;;;16.50;13.00;;;;;-143.39;100.00;63593.47;4889935;29;45439;-83
2021/07/23 01:47:55;;;;;;;;;17.25;13.00;;;;;-143.39;100.00;63593.47;4890806;29;45243;-83
2021/07/23 01:50:21;;;;;;;;;13.00;12.75;;;;;-143.39;100.00;63593.47;4888739;29;45841;-83
2021/07/23 01:52:46;;;;;;;;;12.00;11.00;;;;;-143.39;100.00;63593.47;4905001;29;45386;-83
2021/07/23 01:55:12;;;;;;;;;13.50;12.25;;;;;-143.39;100.00;63593.47;4904364;29;45554;-83
2021/07/23 01:57:38;;;;;;;;;17.25;14.75;;;;;-143.39;100.00;63593.47;4889633;29;45280;-83
2021/07/23 02:00:05;;;;;;;;;15.00;12.50;;;;;-143.39;100.00;63593.47;4877240;29;45192;-83
2021/07/23 02:02:30;;;;;;;;;16.00;13.25;;;;;-143.39;100.00;63593.47;4870221;29;45357;-83
2021/07/23 02:04:58;;;;;;;;;12.00;10.25;;;;;-143.39;100.00;63593.47;4894082;29;45458;-83
2021/07/23 02:07:23;;;;;;;;;12.75;11.00;;;;;-143.39;100.00;63593.47;4888585;29;48426;-83
2021/07/23 02:09:48;;;;;;;;;14.00;12.25;;;;;-143.39;100.00;63593.47;4907981;29;45440;-83
2021/07/23 02:12:14;;;;;;;;;13.75;13.75;;;;;-143.39;100.00;63593.47;4908143;29;45270;-84
2021/07/23 02:14:39;;;;;;;;;10.25;10.25;;;;;-143.39;100.00;63593.47;4894176;29;45178;-83
2021/07/23 02:17:04;;;;;;;;;18.50;16.50;;;;;-143.39;100.00;63593.47;4886762;29;45237;-83
2021/07/23 02:19:30;;;;;;;;;16.75;13.75;;;;;-143.39;100.00;63593.47;4887061;29;45207;-83
2021/07/23 02:21:55;;;;;;;;;12.75;12.00;;;;;-143.39;100.00;63593.47;4870282;29;45228;-83
2021/07/23 02:24:21;;;;;;;;;14.50;11.75;;;;;-143.39;100.00;63593.47;4889147;29;45946;-83
2021/07/23 02:26:46;;;;;;;;;15.50;13.00;;;;;-143.39;100.00;63593.47;4888613;29;47092;-83
2021/07/23 02:29:11;;;;;;;;;14.50;13.25;;;;;-143.39;100.00;63593.47;4905617;29;45273;-83
2021/07/23 02:31:37;;;;;;;;;14.25;13.00;;;;;-143.39;100.00;63593.47;4908741;29;45236;-83
2021/07/23 02:34:02;;;;;;;;;18.25;13.25;;;;;-143.39;100.00;63593.47;4908145;29;45202;-83
2021/07/23 02:36:27;;;;;;;;;18.50;15.25;;;;;-143.39;100.00;63593.47;4885767;29;48454;-83
2021/07/23 02:38:53;;;;;;;;;13.25;12.75;;;;;-143.39;100.00;63593.47;4886305;29;45257;-83
2021/07/23 02:41:18;;;;;;;;;13.25;12.25;;;;;-143.39;100.00;63593.47;4885279;29;45629;-83
2021/07/23 02:43:47;;;;;;;;;14.25;12.50;;;;;-143.39;100.00;63593.47;4869701;29;45460;-83
2021/07/23 02:46:13;;;;;;;;;19.50;15.75;;;;;-143.39;100.00;63593.47;4886089;29;45988;-83
2021/07/23 02:48:38;;;;;;;;;14.00;13.00;;;;;-143.39;100.00;63593.47;4886147;29;45536;-83
2021/07/23 02:51:03;;;;;;;;;12.75;12.75;;;;;-143.39;100.00;63593.47;4903756;29;45439;-83
2021/07/23 02:53:29;;;;;;;;;17.00;14.50;;;;;-143.39;100.00;63593.47;4892453;29;45297;-83
2021/07/23 02:55:54;;;;;;;;;16.75;13.25;;;;;-143.39;100.00;63593.47;4887405;29;47259;-83
2021/07/23 02:58:19;;;;;;;;;16.50;12.25;;;;;-143.39;100.00;63593.47;4896357;29;45299;-83
2021/07/23 03:00:45;;;;;;;;;14.00;14.00;;;;;-143.39;100.00;63593.47;4870918;29;45731;-83
2021/07/23 03:03:11;;;;;;;;;13.25;13.00;;;;;-143.39;100.00;63593.47;4886211;29;45332;-83
2021/07/23 03:05:36;;;;;;;;;18.25;17.25;;;;;-143.39;100.00;63593.47;4885846;29;45950;-83
2021/07/23 03:08:02;;;;;;;;;12.75;12.50;;;;;-143.39;100.00;63593.47;4885932;29;45249;-83
2021/07/23 03:10:27;;;;;;;;;16.00;15.50;;;;;-143.39;100.00;63593.47;4886351;29;45229;-83
2021/07/23 03:12:53;;;;;;;;;17.50;15.25;;;;;-143.39;100.00;63593.47;4891065;29;45622;-82
2021/07/23 03:15:18;;;;;;;;;17.75;13.25;;;;;-143.39;100.00;63593.47;4900248;29;45281;-83
2021/07/23 03:17:43;;;;;;;;;17.75;14.00;;;;;-143.39;100.00;63593.47;4889306;29;45262;-82
2021/07/23 03:20:09;;;;;;;;;18.25;13.50;;;;;-143.39;100.00;63593.47;4894493;29;45430;-83
2021/07/23 03:22:35;;;;;;;;;16.75;14.00;;;;;-143.39;100.00;63593.47;4888141;29;45558;-82
2021/07/23 03:25:03;;;;;;;;;20.75;14.50;;;;;-143.39;100.00;63593.47;4904982;29;45631;-83
2021/07/23 03:27:28;;;;;;;;;21.50;14.00;;;;;-143.39;100.00;63593.47;4888394;29;46186;-83
2021/07/23 03:29:54;;;;;;;;;17.25;14.25;;;;;-143.39;100.00;63593.47;4872625;29;45402;-83
2021/07/23 03:32:20;;;;;;;;;15.75;12.75;;;;;-143.39;100.00;63593.47;4885362;29;45303;-84
2021/07/23 03:34:45;;;;;;;;;18.25;13.75;;;;;-143.39;100.00;63593.47;4885551;29;45281;-84
2021/07/23 03:37:11;;;;;;;;;14.00;14.00;;;;;-143.39;100.00;63593.47;4868617;29;45332;-84
2021/07/23 03:39:36;;;;;;;;;17.75;15.00;;;;;-143.39;100.00;63593.47;4897222;29;46001;-84
2021/07/23 03:42:02;;;;;;;;;16.25;10.00;;;;;-143.39;100.00;63593.47;4888140;29;45323;-84
2021/07/23 03:44:27;;;;;;;;;15.50;13.25;;;;;-143.39;100.00;63593.47;4904348;29;45239;-84
2021/07/23 03:46:53;;;;;;;;;17.00;14.75;;;;;-143.39;100.00;63593.47;4901690;29;45181;-83
2021/07/23 03:49:18;;;;;;;;;22.00;15.75;;;;;-143.39;100.00;63593.47;4885638;29;45426;-84
2021/07/23 03:51:43;;;;;;;;;18.75;13.50;;;;;-143.39;100.00;63593.47;4895650;29;45269;-84
2021/07/23 03:54:09;;;;;;;;;18.00;15.00;;;;;-143.39;100.00;63593.47;4887518;29;45258;-84
2021/07/23 03:56:34;;;;;;;;;18.50;15.50;;;;;-143.39;100.00;63593.47;4885559;29;45379;-84
2021/07/23 03:58:59;;;;;;;;;24.25;15.75;;;;;-143.39;100.00;63593.47;4891031;29;45364;-84
2021/07/23 04:01:25;;;;;;;;;19.50;14.25;;;;;-143.39;100.00;63593.47;4869738;29;45395;-83
2021/07/23 04:03:51;;;;;;;;;20.00;13.75;;;;;-143.39;100.00;63593.47;4902672;29;48579;-83
2021/07/23 04:06:17;;;;;;;;;24.25;16.75;;;;;-143.39;100.00;63593.47;4887628;29;45388;-84
2021/07/23 04:08:42;;;;;;;;;18.50;17.25;;;;;-143.39;100.00;63593.47;4902584;29;45405;-83
2021/07/23 04:11:15;;;;;;;;;20.25;14.50;;;;;-143.39;100.00;63593.47;4904154;29;45549;-83
2021/07/23 04:13:41;;;;;;;;;19.00;16.00;;;;;-143.39;100.00;63593.47;4899731;29;46315;-83
2021/07/23 04:16:07;;;;;;;;;17.50;15.50;;;;;-143.39;100.00;63593.47;4899800;29;46051;-83
2021/07/23 04:18:33;;;;;;;;;15.00;14.00;;;;;-143.39;100.00;63593.47;4883712;29;45481;-84
2021/07/23 04:21:01;;;;;;;;;20.00;15.00;;;;;-143.39;100.00;63593.47;4885473;29;45381;-83
2021/07/23 04:23:27;;;;;;;;;19.50;15.75;;;;;-143.39;100.00;63593.47;4884917;29;45352;-83
2021/07/23 04:25:52;;;;;;;;;19.00;16.25;;;;;-143.39;100.00;63593.47;4885472;29;45243;-83
2021/07/23 04:28:17;;;;;;;;;18.00;15.00;;;;;-143.39;100.00;63593.47;4887959;29;45246;-83
2021/07/23 04:30:43;;;;;;;;;15.00;14.00;;;;;-143.39;100.00;63593.47;4885672;29;45197;-83
2021/07/23 04:33:08;;;;;;;;;22.25;18.25;;;;;-143.39;100.00;63593.47;4885301;29;46108;-84
2021/07/23 04:35:33;;;;;;;;;18.75;16.00;;;;;-143.39;100.00;63593.47;4885612;29;45239;-83
2021/07/23 04:37:59;;;;;;;;;20.00;16.75;;;;;-143.39;100.00;63593.47;4868578;29;45300;-83
2021/07/23 04:40:25;;;;;;;;;21.00;16.25;;;;;-143.39;100.00;63593.47;4885300;29;45394;-84
2021/07/23 04:42:50;;;;;;;;;16.50;15.25;;;;;-143.39;100.00;63593.47;4883489;29;47540;-84
2021/07/23 04:45:16;;;;;;;;;20.00;17.00;;;;;-143.39;100.00;63593.47;4868236;29;46089;-83
2021/07/23 04:47:41;;;;;;;;;21.75;15.50;;;;;-143.39;100.00;63593.47;4887578;29;45406;-84
2021/07/23 04:50:07;;;;;;;;;21.50;15.25;;;;;-143.39;100.00;63593.47;4896739;29;45722;-83
2021/07/23 04:52:32;;;;;;;;;19.25;18.00;;;;;-143.39;100.00;63593.47;4894997;29;45588;-83
2021/07/23 04:54:59;;;;;;;;;21.75;17.75;;;;;-143.39;100.00;63593.47;4884614;29;45431;-83
2021/07/23 04:57:29;;;;;;;;;21.50;17.50;;;;;-143.39;100.00;63593.47;4885810;29;45168;-83
2021/07/23 04:59:54;;;;;;;;;19.50;16.25;;;;;-143.39;100.00;63593.47;4893111;29;45479;-83
2021/07/23 05:02:19;;;;;;;;;25.75;16.75;;;;;-143.39;100.00;63593.47;4884381;29;45715;-83
2021/07/23 05:04:45;;;;;;;;;19.25;16.25;;;;;-143.39;100.00;63593.47;4887575;29;45429;-83
2021/07/23 05:07:10;;;;;;;;;18.25;16.50;;;;;-143.39;100.00;63593.47;4903133;29;45327;-83
2021/07/23 05:09:36;;;;;;;;;20.50;17.25;;;;;-143.39;100.00;63593.47;4903061;29;45615;-83
2021/07/23 05:12:02;;;;;;;;;21.25;19.75;;;;;-143.39;100.00;63593.47;4898194;29;46707;-84
2021/07/23 05:14:28;;;;;;;;;18.25;15.50;;;;;-143.39;100.00;63593.47;4883932;29;45885;-84
2021/07/23 05:16:54;;;;;;;;;18.75;16.00;;;;;-143.39;100.00;63593.47;4884289;29;45483;-84
2021/07/23 05:19:20;;;;;;;;;20.75;17.50;;;;;-143.39;100.00;63593.47;4892035;29;45158;-83
2021/07/23 05:21:46;;;;;;;;;21.00;18.00;;;;;-143.39;100.00;63593.47;4902637;29;46227;-84
2021/07/23 05:24:13;;;;;;;;;19.75;16.00;;;;;-143.39;100.00;63593.47;4896077;29;45335;-84
2021/07/23 05:26:38;;;;;;;;;25.00;17.25;;;;;-143.39;100.00;63593.47;4897740;29;45476;-83
2021/07/23 05:29:05;;;;;;;;;22.75;18.25;;;;;-143.39;100.00;63593.47;4893770;29;45456;-84
2021/07/23 05:31:30;;;;;;;;;19.75;18.25;;;;;-143.39;100.00;63593.47;4886266;29;46453;-84
2021/07/23 05:34:00;;;;;;;;;20.75;18.50;;;;;-143.39;100.00;63593.47;4887437;29;45460;-83
2021/07/23 05:36:26;;;;;;;;;20.25;16.50;;;;;-143.39;100.00;63593.47;4889851;29;46683;-84
2021/07/23 05:38:51;;;;;;;;;19.50;17.00;;;;;-143.39;100.00;63593.47;4894832;29;45230;-83
2021/07/23 05:41:17;;;;;;;;;23.50;18.75;;;;;-143.39;100.00;63593.47;4879740;29;47599;-83
2021/07/23 05:43:42;;;;;;;;;21.25;18.00;;;;;-143.39;100.00;63593.47;4895599;29;45277;-84
2021/07/23 05:46:08;;;;;;;;;19.25;19.00;;;;;-143.39;100.00;63593.47;4884303;29;45286;-84
2021/07/23 05:48:40;;;;;;;;;19.75;19.25;;;;;-143.39;100.00;63593.47;4887302;29;45161;-84
2021/07/23 05:51:07;;;;;;;;;22.25;18.00;;;;;-143.39;100.00;63593.47;4891727;29;45488;-84
2021/07/23 05:53:33;;;;;;;;;24.75;20.00;;;;;-143.39;100.00;63593.47;4893399;29;45310;-83
2021/07/23 05:55:59;;;;;;;;;20.75;17.50;;;;;-143.39;100.00;63593.47;4908492;29;45487;-84
2021/07/23 05:58:29;;;;;;;;;18.75;18.25;;;;;-143.39;100.00;63593.47;4887488;29;45964;-83
2021/07/23 06:00:55;;;;;;;;;18.75;17.50;;;;;-143.39;100.00;63593.47;4905323;29;46304;-84
2021/07/23 06:03:21;;;;;;;;;20.00;16.75;;;;;-143.39;100.00;63593.47;4894492;29;45282;-84
2021/07/23 06:05:46;;;;;;;;;20.75;20.25;;;;;-143.39;100.00;63593.47;4888112;29;46602;-84
2021/07/23 06:08:12;;;;;;;;;21.50;15.25;;;;;-143.39;100.00;63593.47;4899480;29;45399;-84
2021/07/23 06:10:37;;;;;;;;;21.25;17.50;;;;;-143.39;100.00;63593.47;4899839;29;46459;-84
2021/07/23 06:13:03;;;;;;;;;20.25;17.50;;;;;-143.39;100.00;63593.47;4903580;29;45418;-84
2021/07/23 06:15:28;;;;;;;;;21.50;17.25;;;;;-143.39;100.00;63593.47;4902187;29;45309;-83
2021/07/23 06:17:55;;;;;;;;;20.00;17.25;;;;;-143.39;100.00;63593.47;4890877;29;45477;-83
2021/07/23 06:20:20;;;;;;;;;22.50;18.50;;;;;-143.39;100.00;63593.47;4895439;29;45424;-83
2021/07/23 06:22:45;;;;;;;;;24.00;20.25;;;;;-143.39;100.00;63593.47;4898069;29;45284;-84
2021/07/23 06:25:11;;;;;;;;;20.00;16.00;;;;;-143.39;100.00;63593.47;4873022;29;45480;-83
2021/07/23 06:27:36;;;;;;;;;28.00;21.75;;;;;-143.39;100.00;63593.47;4899396;29;45318;-84
2021/07/23 06:30:03;;;;;;;;;19.50;17.75;;;;;-143.39;100.00;63593.47;4890446;29;45425;-83
2021/07/23 06:32:30;;;;;;;;;17.75;16.75;;;;;-143.39;100.00;63593.47;4886628;29;45452;-82
2021/07/23 06:34:57;;;;;;;;;20.75;19.00;;;;;-143.39;100.00;63593.47;4886595;29;45273;-82
2021/07/23 06:37:23;;;;;;;;;21.75;19.00;;;;;-143.39;100.00;63593.47;4889098;29;45465;-83
2021/07/23 06:39:49;;;;;;;;;28.00;22.75;;;;;-143.39;100.00;63593.47;4890903;29;45914;-84
2021/07/23 06:42:15;;;;;;;;;23.50;21.00;;;;;-143.39;100.00;63593.47;4896549;29;45438;-83
2021/07/23 06:44:41;;;;;;;;;22.00;19.75;;;;;-143.39;100.00;63593.47;4880767;28;45409;-83
2021/07/23 06:47:06;;;;;;;;;20.50;18.00;;;;;-143.39;100.00;63593.47;4885982;29;45744;-83
2021/07/23 06:49:32;;;;;;;;;23.75;20.00;;;;;-143.39;100.00;63593.47;4870974;29;48396;-82
2021/07/23 06:51:57;;;;;;;;;23.00;17.25;;;;;-143.39;100.00;63593.47;4901808;29;45386;-84
2021/07/23 06:54:22;;;;;;;;;24.75;20.00;;;;;-143.39;100.00;63593.47;4893476;29;45714;-83
2021/07/23 06:56:50;;;;;;;;;21.00;18.25;;;;;-143.39;100.00;63593.47;4889482;29;45506;-83
2021/07/23 06:59:15;;;;;;;;;18.25;18.25;;;;;-143.39;100.00;63593.47;4896541;29;46434;-83
2021/07/23 07:01:41;;;;;;;;;24.50;20.25;;;;;-143.39;100.00;63593.47;4894674;29;45498;-82
2021/07/23 07:04:06;;;;;;;;;23.75;22.50;;;;;-143.39;100.00;63593.47;4901785;29;45355;-82
2021/07/23 07:06:31;;;;;;;;;22.75;18.25;;;;;-143.39;100.00;63593.47;4899998;29;45434;-83
2021/07/23 07:08:57;;;;;;;;;32.00;25.25;;;;;-143.39;100.00;63593.47;4896486;29;45443;-83
2021/07/23 07:11:22;;;;;;;;;25.25;20.50;;;;;-143.39;100.00;63593.47;4876088;29;45360;-81
2021/07/23 07:13:47;;;;;;;;;20.75;19.50;;;;;-143.39;100.00;63593.47;4890350;29;45681;-86
2021/07/23 07:16:13;;;;;;;;;26.00;20.00;;;;;-143.39;100.00;63593.47;4898160;29;45530;-84
2021/07/23 07:18:38;;;;;;;;;20.25;19.00;;;;;-143.39;100.00;63593.47;4893650;29;45435;-83
2021/07/23 07:21:05;;;;;;;;;24.75;23.00;;;;;-143.39;100.00;63593.47;4879368;29;45436;-84
2021/07/23 07:23:32;;;;;;;;;19.00;19.00;;;;;-143.39;100.00;63593.47;4900465;29;45772;-84
2021/07/23 07:25:57;;;;;;;;;19.50;18.50;;;;;-143.39;100.00;63593.47;4905930;29;45650;-83
2021/07/23 07:28:23;;;;;;;;;27.75;19.00;;;;;-143.39;100.00;63593.47;4903621;29;45353;-83
2021/07/23 07:30:48;;;;;;;;;20.00;17.50;;;;;-143.39;100.00;63593.47;4900690;29;45441;-83
2021/07/23 07:33:14;;;;;;;;;23.75;18.50;;;;;-143.39;100.00;63593.47;4895359;29;45456;-84
2021/07/23 07:35:44;;;;;;;;;23.25;20.50;;;;;-143.39;100.00;63593.47;4901922;29;45404;-84
2021/07/23 07:38:09;;;;;;;;;23.00;21.00;;;;;-143.39;100.00;63593.47;4898005;29;45336;-85
2021/07/23 07:40:34;;;;;;;;;22.50;18.25;;;;;-143.39;100.00;63593.47;4898878;29;45531;-85
2021/07/23 07:43:00;;;;;;;;;18.25;17.50;;;;;-143.39;100.00;63593.47;4899246;29;45343;-86
2021/07/23 07:45:25;;;;;;;;;18.50;16.00;;;;;-143.39;100.00;63593.47;4903334;29;45854;-85
2021/07/23 07:47:51;;;;;;;;;22.00;20.25;;;;;-143.39;100.00;63593.47;4883893;29;47143;-85
2021/07/23 07:50:16;;;;;;;;;18.25;16.25;;;;;-143.39;100.00;63593.47;4900659;29;45507;-85
2021/07/23 07:52:42;;;;;;;;;18.50;18.50;;;;;-143.39;100.00;63593.47;4896102;29;45481;-86
2021/07/23 07:55:08;;;;;;;;;23.50;20.00;;;;;-143.39;100.00;63593.47;4895017;29;45498;-86
2021/07/23 07:57:33;;;;;;;;;16.25;15.00;;;;;-143.39;100.00;63593.47;4897512;29;46289;-86
2021/07/23 07:59:58;;;;;;;;;19.25;15.75;;;;;-143.39;100.00;63593.47;4885192;29;45520;-86
2021/07/23 08:02:24;;;;;;;;;20.50;17.25;;;;;-143.39;100.00;63593.47;4898502;29;45435;-86
2021/07/23 08:04:50;;;;;;;;;16.75;16.75;;;;;-143.39;100.00;63593.47;4896383;29;45853;-87
2021/07/23 08:07:21;;;;;;;;;19.00;17.00;;;;;-143.39;100.00;63593.47;4893999;29;45462;-86
2021/07/23 08:09:58;;;;;;;;;17.50;16.00;;;;;-143.39;100.00;63593.47;4894393;29;45328;-87
2021/07/23 08:12:23;;;;;;;;;20.50;18.50;;;;;-143.39;100.00;63593.47;4898277;29;45365;-87
2021/07/23 08:14:49;;;;;;;;;17.00;16.00;;;;;-143.39;100.00;63593.47;4884877;29;45581;-87
2021/07/23 08:17:15;;;;;;;;;17.75;17.50;;;;;-143.39;100.00;63593.47;4899552;28;45612;-88
2021/07/23 08:19:41;;;;;;;;;22.75;17.25;;;;;-143.39;100.00;63593.47;4897204;29;45569;-88
2021/07/23 08:22:08;;;;;;;;;16.00;16.00;;;;;-143.39;100.00;63593.47;4894561;29;45325;-85
2021/07/23 08:24:33;;;;;;;;;18.00;17.75;;;;;-143.39;100.00;63593.47;4901081;29;46955;-85
2021/07/23 08:27:00;;;;;;;;;23.75;18.25;;;;;-143.39;100.00;63593.47;4898709;29;45364;-85
2021/07/23 08:29:25;;;;;;;;;20.50;17.75;;;;;-143.39;100.00;63593.47;4874944;29;46089;-88
2021/07/23 08:31:50;;;;;;;;;17.75;16.25;;;;;-143.39;100.00;63593.47;4898793;29;45479;-87
2021/07/23 08:34:16;;;;;;;;;16.00;14.00;;;;;-143.39;100.00;63593.47;4902602;29;45427;-87
2021/07/23 08:36:42;;;;;;;;;19.50;17.00;;;;;-143.39;100.00;63593.47;4878081;29;47435;-85
2021/07/23 08:39:07;;;;;;;;;20.50;17.75;;;;;-143.39;100.00;63593.47;4879980;29;45446;-85
2021/07/23 08:41:35;;;;;;;;;13.50;13.50;;;;;-143.39;100.00;63593.47;4897417;29;45607;-85
2021/07/23 08:44:01;;;;;;;;;16.25;16.25;;;;;-143.39;100.00;63593.47;4900727;29;45231;-85
2021/07/23 08:46:28;;;;;;;;;18.50;18.50;;;;;-143.39;100.00;63593.47;4874654;29;47197;-86
2021/07/23 08:48:53;;;;;;;;;20.50;17.00;;;;;-143.39;100.00;63593.47;4879751;29;45876;-86
2021/07/23 08:51:19;;;;;;;;;18.75;18.75;;;;;-143.39;100.00;63593.47;4894810;29;45436;-86
2021/07/23 08:53:45;;;;;;;;;16.50;16.50;;;;;-143.39;100.00;63593.47;4894401;29;45449;-86
2021/07/23 08:56:11;;;;;;;;;20.75;18.00;;;;;-143.39;100.00;63593.47;4880502;29;47187;-87
2021/07/23 08:58:37;;;;;;;;;18.25;15.00;;;;;-143.39;100.00;63593.47;4895259;29;45477;-87
2021/07/23 09:01:02;;;;;;;;;20.50;19.50;;;;;-143.39;100.00;63593.47;4898495;29;45545;-87
2021/07/23 09:03:28;;;;;;;;;18.00;17.75;;;;;-143.39;100.00;63593.47;4888306;29;45890;-87
2021/07/23 09:05:54;;;;;;;;;18.25;16.50;;;;;-143.39;100.00;63593.47;4889906;29;45583;-87
2021/07/23 09:08:21;;;;;;;;;18.50;17.25;;;;;-143.39;100.00;63593.47;4893808;29;45574;-86
2021/07/23 09:11:01;;;;;;;;;20.50;17.50;;;;;-143.39;100.00;63593.47;4891991;29;45538;-86
2021/07/23 09:13:26;;;;;;;;;17.75;17.25;;;;;-143.39;100.00;63593.47;4892138;29;45540;-87
2021/07/23 09:15:53;;;;;;;;;16.75;16.75;;;;;-143.39;100.00;63593.47;4893094;29;45505;-87
2021/07/23 09:18:18;;;;;;;;;15.75;15.75;;;;;-143.39;100.00;63593.47;4876572;29;45493;-87
2021/07/23 09:21:02;;;;;;;;;16.50;16.50;;;;;-143.39;100.00;63593.47;4858874;29;1165964;-86
2021/07/23 09:23:33;;;;;;;;;15.50;15.50;;;;;-143.39;100.00;63593.47;4900107;29;45873;-86
2021/07/23 09:26:03;;;;;;;;;15.75;15.75;;;;;-143.39;100.00;63593.47;4902360;29;46526;-87
2021/07/23 09:28:33;;;;;;;;;17.50;14.75;;;;;-143.39;100.00;63593.47;4880445;29;45641;-87
2021/07/23 09:31:01;;;;;;;;;17.50;16.25;;;;;-143.39;100.00;63593.47;4892336;29;45389;-87
2021/07/23 09:33:39;;;;;;;;;15.75;14.25;;;;;-143.39;100.00;63593.47;4900734;29;45491;-87
2021/07/23 09:36:08;;;;;;;;;16.75;16.50;;;;;-143.39;100.00;63593.47;4882066;29;46242;-87
2021/07/23 09:38:38;;;;;;;;;19.25;18.25;;;;;-143.39;100.00;63593.47;4902807;29;45321;-88
2021/07/23 09:41:07;;;;;;;;;19.00;17.75;;;;;-143.39;100.00;63593.47;4900175;29;45523;-88
2021/07/23 09:43:38;;;;;;;;;17.00;17.00;;;;;-143.39;100.00;63593.47;4883257;29;45496;-87
2021/07/23 09:46:16;;;;;;;;;16.50;15.50;;;;;-143.39;100.00;63593.47;4899005;29;46325;-86
2021/07/23 09:48:45;;;;;;;;;17.00;16.50;;;;;-143.39;100.00;63593.47;4894955;29;45333;-87
2021/07/23 09:51:11;;;;;;;;;19.50;17.25;;;;;-143.39;100.00;63593.47;4899649;29;45572;-87
2021/07/23 09:53:37;;;;;;;;;19.50;17.25;;;;;-143.39;100.00;63593.47;4895302;29;45535;-87
2021/07/23 09:56:06;;;;;;;;;14.25;14.25;;;;;-143.39;100.00;63593.47;4877398;29;47064;-88
2021/07/23 09:58:37;;;;;;;;;15.50;15.00;;;;;-143.39;100.00;63593.47;4899966;28;45953;-87
2021/07/23 10:01:08;;;;;;;;;21.50;16.25;;;;;-143.39;100.00;63593.47;4875368;29;45777;-87
2021/07/23 10:03:36;;;;;;;;;18.00;15.50;;;;;-143.39;100.00;63593.47;4898674;29;45492;-87
2021/07/23 10:06:07;;;;;;;;;22.00;18.00;;;;;-143.39;100.00;63593.47;4906868;29;45465;-88
2021/07/23 10:08:38;;;;;;;;;20.25;20.00;;;;;-143.39;100.00;63593.47;4896773;29;45408;-87
2021/07/23 10:11:06;;;;;;;;;17.75;16.50;;;;;-143.39;100.00;63593.47;4897432;29;45526;-88
2021/07/23 10:13:37;;;;;;;;;16.25;14.75;;;;;-143.39;100.00;63593.47;4879785;29;45518;-85
2021/07/23 10:16:05;;;;;;;;;19.00;17.50;;;;;-143.39;100.00;63593.47;4895208;29;47305;-87
2021/07/23 10:18:31;;;;;;;;;19.50;17.25;;;;;-143.39;100.00;63593.47;4890768;29;45473;-86
2021/07/23 10:20:58;;;;;;;;;21.25;20.00;;;;;-143.39;100.00;63593.47;4893487;29;45461;-86
2021/07/23 10:23:25;;;;;;;;;16.50;15.50;;;;;-143.39;100.00;63593.47;4879807;29;45557;-83
2021/07/23 10:25:53;;;;;;;;;18.50;16.00;;;;;-143.39;100.00;63593.47;4888647;29;46871;-85
2021/07/23 10:28:40;;;;;;;;;17.75;16.75;;;;;-143.39;100.00;63593.47;4908035;29;45516;-86
2021/07/23 10:31:18;;;;;;;;;17.25;16.00;;;;;-143.39;100.00;63593.47;4892429;29;45321;-85
2021/07/23 10:33:58;;;;;;;;;19.25;17.75;;;;;-143.39;100.00;63593.47;4885116;29;45256;-85
2021/07/23 10:36:26;;;;;;;;;19.75;18.50;;;;;-143.39;100.00;63593.47;4886622;29;45387;-86
2021/07/23 10:39:17;;;;;;;;;19.00;19.00;;;;;-143.39;100.00;63593.47;4886077;29;45656;-89
2021/07/23 10:42:02;;;;;;;;;17.00;16.75;;;;;-143.39;100.00;63593.47;4885262;29;45583;-87
2021/07/23 10:44:28;;;;;;;;;15.75;15.75;;;;;-143.39;100.00;63593.47;4882844;29;45618;-87
2021/07/23 10:46:53;;;;;;;;;19.75;18.25;;;;;-143.39;100.00;63593.47;4891472;29;45513;-88
2021/07/23 10:49:24;;;;;;;;;20.00;19.50;;;;;-143.39;100.00;63593.47;4892232;29;45357;-87
2021/07/23 10:51:52;;;;;;;;;17.25;16.00;;;;;-143.39;100.00;63593.47;4878359;29;45498;-88